createdAt,value
2017-07-23T00:00:43.139Z,21.80
2017-07-23T00:03:10.671Z,21.80
2017-07-23T00:05:38.187Z,21.80
2017-07-23T00:08:06.487Z,21.80
2017-07-23T00:10:34.380Z,21.90
2017-07-23T00:13:02.677Z,21.90
2017-07-23T00:15:31.752Z,21.80
2017-07-23T00:17:59.263Z,21.80
2017-07-23T00:20:28.086Z,21.80
2017-07-23T00:22:55.602Z,21.80
2017-07-23T00:25:24.606Z,21.80
2017-07-23T00:27:52.866Z,21.70
2017-07-23T00:30:20.780Z,21.50
2017-07-23T00:32:48.391Z,21.30
2017-07-23T00:35:15.923Z,21.20
2017-07-23T00:37:43.423Z,21.00
2017-07-23T00:40:10.939Z,20.80
2017-07-23T00:42:38.441Z,20.60
2017-07-23T00:45:05.975Z,20.50
2017-07-23T00:47:33.483Z,20.40
2017-07-23T00:50:01.395Z,20.40
2017-07-23T00:52:28.915Z,20.30
2017-07-23T00:54:56.434Z,20.20
2017-07-23T00:57:23.932Z,20.10
2017-07-23T00:59:51.427Z,20.00
2017-07-23T01:02:19.050Z,20.00
2017-07-23T01:04:46.550Z,20.00
2017-07-23T01:07:14.079Z,19.90
2017-07-23T01:09:43.078Z,19.80
2017-07-23T01:12:11.366Z,19.80
2017-07-23T01:14:39.261Z,19.80
2017-07-23T01:17:06.766Z,19.70
2017-07-23T01:19:35.400Z,19.70
2017-07-23T01:22:02.923Z,19.60
2017-07-23T01:24:31.923Z,19.60
2017-07-23T01:26:59.427Z,19.50
2017-07-23T01:29:26.952Z,19.40
2017-07-23T01:31:54.465Z,19.40
2017-07-23T01:34:21.987Z,19.30
2017-07-23T01:36:49.500Z,19.30
2017-07-23T01:39:17.024Z,19.20
2017-07-23T01:41:44.916Z,19.20
2017-07-23T01:44:12.446Z,19.20
2017-07-23T01:46:41.078Z,19.10
2017-07-23T01:49:08.716Z,19.10
2017-07-23T01:51:36.252Z,19.10
2017-07-23T01:54:03.766Z,19.10
2017-07-23T01:56:31.655Z,19.10
2017-07-23T02:01:28.044Z,19.30
2017-07-23T02:03:55.543Z,19.20
2017-07-23T02:06:23.833Z,19.20
2017-07-23T02:08:51.732Z,19.20
2017-07-23T02:11:19.247Z,19.20
2017-07-23T02:13:46.751Z,19.20
2017-07-23T02:16:14.275Z,19.20
2017-07-23T02:18:41.771Z,19.30
2017-07-23T02:21:09.396Z,19.30
2017-07-23T02:23:36.887Z,19.30
2017-07-23T02:26:04.387Z,19.30
2017-07-23T02:28:32.295Z,19.30
2017-07-23T02:30:59.788Z,19.30
2017-07-23T02:33:28.167Z,19.30
2017-07-23T02:35:56.056Z,19.20
2017-07-23T02:38:23.579Z,19.00
2017-07-23T02:40:52.207Z,18.90
2017-07-23T02:43:19.725Z,18.80
2017-07-23T02:45:48.363Z,18.80
2017-07-23T02:48:15.904Z,18.70
2017-07-23T02:50:43.402Z,18.70
2017-07-23T02:53:12.539Z,18.60
2017-07-23T02:55:40.072Z,18.60
2017-07-23T02:58:08.326Z,18.50
2017-07-23T03:00:35.868Z,18.60
2017-07-23T03:03:03.771Z,18.50
2017-07-23T03:05:32.046Z,18.50
2017-07-23T03:07:59.540Z,18.60
2017-07-23T03:10:27.071Z,18.60
2017-07-23T03:12:54.578Z,18.50
2017-07-23T03:15:22.092Z,18.50
2017-07-23T03:17:49.591Z,18.60
2017-07-23T03:20:17.132Z,18.60
2017-07-23T03:22:44.631Z,18.50
2017-07-23T03:25:12.143Z,18.50
2017-07-23T03:27:39.660Z,18.60
2017-07-23T03:30:08.287Z,18.60
2017-07-23T03:32:36.573Z,18.60
2017-07-23T03:35:04.075Z,18.60
2017-07-23T03:37:32.734Z,18.70
2017-07-23T03:40:00.651Z,18.80
2017-07-23T03:42:28.159Z,18.70
2017-07-23T03:44:56.062Z,18.70
2017-07-23T03:47:23.593Z,18.70
2017-07-23T03:49:52.223Z,18.70
2017-07-23T03:52:19.743Z,18.70
2017-07-23T03:54:47.238Z,18.70
2017-07-23T03:57:14.763Z,18.80
2017-07-23T03:59:42.363Z,18.80
2017-07-23T04:02:09.916Z,18.80
2017-07-23T04:04:39.112Z,18.80
2017-07-23T04:07:07.380Z,18.80
2017-07-23T04:09:34.902Z,18.80
2017-07-23T04:12:02.399Z,18.80
2017-07-23T04:14:30.686Z,18.80
2017-07-23T04:16:59.320Z,18.90
2017-07-23T04:19:26.855Z,19.00
2017-07-23T04:21:54.346Z,18.70
2017-07-23T04:24:23.005Z,18.70
2017-07-23T04:26:50.526Z,18.60
2017-07-23T04:29:18.022Z,18.60
2017-07-23T04:31:45.541Z,18.50
2017-07-23T04:34:13.047Z,18.50
2017-07-23T04:36:40.570Z,18.40
2017-07-23T04:39:08.065Z,18.50
2017-07-23T04:41:35.595Z,18.50
2017-07-23T04:44:03.104Z,18.50
2017-07-23T04:46:30.630Z,18.50
2017-07-23T04:48:58.120Z,18.70
2017-07-23T04:51:25.666Z,18.70
2017-07-23T04:53:53.166Z,18.70
2017-07-23T04:56:20.662Z,18.70
2017-07-23T04:58:48.203Z,18.80
2017-07-23T05:01:16.102Z,18.80
2017-07-23T05:03:43.635Z,18.80
2017-07-23T05:08:39.995Z,18.80
2017-07-23T05:11:08.994Z,18.90
2017-07-23T05:13:36.516Z,18.80
2017-07-23T05:16:04.008Z,18.90
2017-07-23T05:18:31.503Z,18.90
2017-07-23T05:20:59.015Z,18.90
2017-07-23T05:23:26.515Z,19.10
2017-07-23T05:25:55.171Z,19.10
2017-07-23T05:28:23.070Z,19.40
2017-07-23T05:30:50.583Z,19.50
2017-07-23T05:33:18.089Z,19.50
2017-07-23T05:35:46.370Z,19.60
2017-07-23T05:38:14.643Z,19.70
2017-07-23T05:40:42.176Z,19.70
2017-07-23T05:43:10.922Z,19.70
2017-07-23T05:45:38.425Z,19.70
2017-07-23T05:48:05.939Z,19.60
2017-07-23T05:50:33.438Z,19.80
2017-07-23T05:53:00.961Z,20.00
2017-07-23T05:55:28.463Z,20.10
2017-07-23T05:57:56.764Z,20.30
2017-07-23T06:00:24.279Z,20.30
2017-07-23T06:02:51.811Z,20.20
2017-07-23T06:07:48.942Z,20.30
2017-07-23T06:10:16.436Z,20.40
2017-07-23T06:12:43.938Z,20.50
2017-07-23T06:15:11.465Z,20.80
2017-07-23T06:17:38.955Z,21.20
2017-07-23T06:20:06.471Z,21.40
2017-07-23T06:22:34.737Z,21.50
2017-07-23T06:25:02.251Z,21.60
2017-07-23T06:27:30.540Z,21.70
2017-07-23T06:29:58.067Z,21.80
2017-07-23T06:32:25.566Z,22.10
2017-07-23T06:34:53.846Z,22.10
2017-07-23T06:37:22.103Z,22.40
2017-07-23T06:39:49.650Z,22.50
2017-07-23T06:42:17.147Z,22.60
2017-07-23T06:44:44.645Z,23.00
2017-07-23T06:47:12.166Z,23.40
2017-07-23T06:49:39.671Z,23.60
2017-07-23T06:52:07.195Z,24.10
2017-07-23T06:54:35.466Z,24.40
2017-07-23T06:57:03.745Z,24.40
2017-07-23T06:59:32.002Z,24.10
2017-07-23T07:02:00.290Z,23.90
2017-07-23T07:04:29.374Z,23.60
2017-07-23T07:06:57.866Z,23.50
2017-07-23T07:09:25.387Z,23.30
2017-07-23T07:11:52.920Z,23.00
2017-07-23T07:14:20.858Z,22.60
2017-07-23T07:16:48.369Z,22.40
2017-07-23T07:19:16.714Z,22.20
2017-07-23T07:21:44.211Z,22.10
2017-07-23T07:24:14.210Z,22.00
2017-07-23T07:26:42.370Z,22.10
2017-07-23T07:29:10.710Z,22.10
2017-07-23T07:31:38.222Z,22.00
2017-07-23T07:34:05.740Z,22.00
2017-07-23T07:36:34.006Z,22.00
2017-07-23T07:39:01.531Z,22.00
2017-07-23T07:41:29.043Z,22.10
2017-07-23T07:43:56.551Z,22.30
2017-07-23T07:46:24.467Z,22.70
2017-07-23T07:48:51.969Z,23.00
2017-07-23T07:51:19.488Z,23.00
2017-07-23T07:53:46.998Z,22.90
2017-07-23T07:56:15.284Z,22.80
2017-07-23T07:58:42.796Z,22.80
2017-07-23T08:01:10.711Z,22.80
2017-07-23T08:03:39.061Z,22.70
2017-07-23T08:06:06.979Z,22.60
2017-07-23T08:08:34.862Z,22.50
2017-07-23T08:11:03.187Z,22.40
2017-07-23T08:13:30.683Z,22.30
2017-07-23T08:15:59.315Z,22.20
2017-07-23T08:18:26.833Z,22.20
2017-07-23T08:20:54.331Z,22.20
2017-07-23T08:23:22.287Z,22.20
2017-07-23T08:25:49.807Z,22.20
2017-07-23T08:28:17.334Z,22.60
2017-07-23T08:30:45.596Z,23.80
2017-07-23T08:33:13.515Z,24.30
2017-07-23T08:35:41.025Z,24.20
2017-07-23T08:38:08.939Z,24.00
2017-07-23T08:43:08.119Z,23.60
2017-07-23T08:45:35.652Z,23.40
2017-07-23T08:48:03.928Z,23.10
2017-07-23T08:50:32.219Z,23.50
2017-07-23T08:53:00.903Z,24.20
2017-07-23T08:55:28.520Z,24.30
2017-07-23T08:57:56.069Z,24.00
2017-07-23T09:00:23.608Z,23.80
2017-07-23T09:02:51.253Z,23.60
2017-07-23T09:05:18.794Z,23.60
2017-07-23T09:07:46.297Z,23.50
2017-07-23T09:10:14.582Z,23.50
2017-07-23T09:12:43.637Z,23.50
2017-07-23T09:15:11.139Z,23.40
2017-07-23T09:17:39.095Z,23.30
2017-07-23T09:20:06.646Z,23.30
2017-07-23T09:22:34.171Z,23.20
2017-07-23T09:25:01.747Z,23.20
2017-07-23T09:29:58.118Z,23.10
2017-07-23T09:34:54.791Z,23.00
2017-07-23T09:37:23.162Z,22.90
2017-07-23T09:39:50.687Z,22.80
2017-07-23T09:42:18.183Z,22.70
2017-07-23T09:44:45.734Z,22.80
2017-07-23T09:47:13.994Z,22.90
2017-07-23T09:49:41.508Z,23.00
2017-07-23T09:52:09.064Z,23.20
2017-07-23T09:54:36.981Z,23.50
2017-07-23T09:57:04.516Z,23.80
2017-07-23T09:59:33.527Z,24.10
2017-07-23T10:02:01.046Z,24.10
2017-07-23T10:06:57.520Z,24.40
2017-07-23T10:09:26.555Z,24.30
2017-07-23T10:11:54.835Z,24.40
2017-07-23T10:14:22.359Z,24.50
2017-07-23T10:16:49.856Z,24.40
2017-07-23T10:19:17.394Z,24.50
2017-07-23T10:21:44.895Z,24.50
2017-07-23T10:24:12.412Z,24.50
2017-07-23T10:26:39.916Z,24.80
2017-07-23T10:29:07.470Z,25.00
2017-07-23T10:31:35.377Z,25.40
2017-07-23T10:34:02.908Z,26.00
2017-07-23T10:36:31.567Z,26.40
2017-07-23T10:38:59.828Z,26.50
2017-07-23T10:43:56.199Z,25.70
2017-07-23T10:46:24.111Z,25.40
2017-07-23T10:48:51.638Z,25.20
2017-07-23T10:51:19.146Z,25.00
2017-07-23T10:53:48.156Z,24.80
2017-07-23T10:56:15.683Z,24.60
2017-07-23T10:58:43.174Z,24.20
2017-07-23T11:01:11.479Z,24.00
2017-07-23T11:03:39.388Z,24.00
2017-07-23T11:06:06.899Z,23.90
2017-07-23T11:08:34.437Z,23.80
2017-07-23T11:11:02.021Z,23.70
2017-07-23T11:13:30.694Z,23.60
2017-07-23T11:15:58.287Z,23.70
2017-07-23T11:18:25.818Z,23.80
2017-07-23T11:20:53.331Z,23.90
2017-07-23T11:23:21.249Z,23.90
2017-07-23T11:25:48.746Z,23.90
2017-07-23T11:28:16.274Z,23.90
2017-07-23T11:30:43.775Z,23.90
2017-07-23T11:33:11.301Z,23.90
2017-07-23T11:35:38.804Z,23.90
2017-07-23T11:38:06.353Z,23.90
2017-07-23T11:40:33.856Z,23.90
2017-07-23T11:43:01.375Z,23.90
2017-07-23T11:45:28.875Z,24.00
2017-07-23T11:47:56.767Z,23.90
2017-07-23T11:50:24.290Z,23.90
2017-07-23T11:52:51.783Z,24.10
2017-07-23T11:55:19.299Z,24.30
2017-07-23T11:57:46.795Z,24.40
2017-07-23T12:00:15.075Z,24.30
2017-07-23T12:02:43.334Z,24.40
2017-07-23T12:05:10.854Z,24.60
2017-07-23T12:10:07.228Z,24.60
2017-07-23T12:12:34.724Z,24.60
2017-07-23T12:15:02.244Z,24.70
2017-07-23T12:17:30.138Z,24.70
2017-07-23T12:19:57.641Z,24.70
2017-07-23T12:22:25.551Z,24.80
2017-07-23T12:24:53.827Z,24.80
2017-07-23T12:27:21.751Z,24.80
2017-07-23T12:29:50.027Z,24.50
2017-07-23T12:34:46.413Z,23.80
2017-07-23T12:37:13.937Z,23.70
2017-07-23T12:39:41.442Z,23.80
2017-07-23T12:42:08.964Z,23.80
2017-07-23T12:44:36.463Z,23.80
2017-07-23T12:47:03.977Z,23.80
2017-07-23T12:49:31.479Z,23.90
2017-07-23T12:51:59.397Z,24.10
2017-07-23T12:54:26.902Z,24.30
2017-07-23T12:56:54.416Z,24.30
2017-07-23T12:59:21.939Z,24.40
2017-07-23T13:01:49.435Z,24.40
2017-07-23T13:04:17.001Z,24.40
2017-07-23T13:06:44.503Z,24.30
2017-07-23T13:09:12.418Z,24.30
2017-07-23T13:11:39.911Z,24.30
2017-07-23T13:14:07.434Z,24.30
2017-07-23T13:16:34.932Z,24.30
2017-07-23T13:19:02.851Z,24.20
2017-07-23T13:21:31.256Z,24.30
2017-07-23T13:23:59.539Z,24.30
2017-07-23T13:26:27.812Z,24.30
2017-07-23T13:28:56.106Z,24.30
2017-07-23T13:31:23.681Z,24.30
2017-07-23T13:33:51.180Z,24.30
2017-07-23T13:36:18.724Z,24.40
2017-07-23T13:38:46.223Z,24.50
2017-07-23T13:41:14.161Z,24.50
2017-07-23T13:43:42.451Z,24.60
2017-07-23T13:46:10.757Z,24.50
2017-07-23T13:48:38.261Z,24.50
2017-07-23T13:53:34.658Z,24.40
2017-07-23T13:56:03.378Z,24.30
2017-07-23T13:58:30.893Z,24.10
2017-07-23T14:00:59.187Z,23.90
2017-07-23T14:03:26.698Z,23.70
2017-07-23T14:05:55.731Z,23.60
2017-07-23T14:13:21.454Z,23.30
2017-07-23T14:15:49.351Z,23.20
2017-07-23T14:18:16.874Z,23.10
2017-07-23T14:20:44.406Z,22.90
2017-07-23T14:23:11.934Z,22.80
2017-07-23T14:25:39.455Z,22.70
2017-07-23T14:28:07.417Z,22.60
2017-07-23T14:30:34.919Z,22.70
2017-07-23T14:33:03.215Z,22.60
2017-07-23T14:35:30.711Z,22.60
2017-07-23T14:37:58.223Z,22.60
2017-07-23T14:40:25.782Z,22.60
2017-07-23T14:42:53.673Z,22.70
2017-07-23T14:45:21.186Z,22.70
2017-07-23T14:47:48.688Z,22.70
2017-07-23T14:50:16.205Z,22.70
2017-07-23T14:52:44.539Z,22.70
2017-07-23T14:55:12.051Z,22.70
2017-07-23T14:57:39.568Z,22.80
2017-07-23T15:00:07.090Z,22.90
2017-07-23T15:02:34.585Z,22.80
2017-07-23T15:05:03.213Z,22.80
2017-07-23T15:07:31.500Z,22.70
2017-07-23T15:09:59.004Z,22.70
2017-07-23T15:12:26.528Z,22.60
2017-07-23T15:14:55.535Z,22.50
2017-07-23T15:17:23.443Z,22.50
2017-07-23T15:19:51.705Z,22.50
2017-07-23T15:22:19.630Z,22.50
2017-07-23T15:27:17.500Z,22.20
2017-07-23T15:29:45.398Z,22.10
2017-07-23T15:32:12.918Z,22.10
2017-07-23T15:34:40.810Z,22.00
2017-07-23T15:37:08.327Z,21.90
2017-07-23T15:42:04.678Z,21.90
2017-07-23T15:44:32.593Z,21.90
2017-07-23T15:47:01.593Z,22.10
2017-07-23T15:49:30.242Z,22.20
2017-07-23T15:51:57.803Z,22.30
2017-07-23T15:54:26.091Z,22.30
2017-07-23T15:56:53.591Z,22.40
2017-07-23T15:59:21.107Z,22.40
2017-07-23T16:01:48.615Z,22.30
2017-07-23T16:04:16.143Z,22.20
2017-07-23T16:06:43.639Z,22.20
2017-07-23T16:09:11.136Z,22.10
2017-07-23T16:11:39.052Z,22.10
2017-07-23T16:14:06.542Z,22.00
2017-07-23T16:16:34.189Z,22.00
2017-07-23T16:19:01.843Z,22.00
2017-07-23T16:21:29.362Z,21.80
2017-07-23T16:23:57.622Z,21.80
2017-07-23T16:26:25.137Z,21.80
2017-07-23T16:28:54.143Z,21.80
2017-07-23T16:33:50.511Z,21.80
2017-07-23T16:36:18.024Z,21.70
2017-07-23T16:38:45.518Z,21.70
2017-07-23T16:41:13.031Z,21.70
2017-07-23T16:43:41.305Z,21.80
2017-07-23T16:46:08.895Z,21.80
2017-07-23T16:48:37.548Z,21.90
2017-07-23T16:51:05.047Z,21.90
2017-07-23T16:53:33.322Z,21.80
2017-07-23T16:58:29.678Z,21.80
2017-07-23T17:00:57.211Z,21.80
2017-07-23T17:03:24.749Z,21.80
2017-07-23T17:05:52.242Z,21.80
2017-07-23T17:08:19.754Z,21.80
2017-07-23T17:10:47.247Z,21.90
2017-07-23T17:13:15.534Z,22.00
2017-07-23T17:15:43.791Z,22.00
2017-07-23T17:18:11.282Z,22.00
2017-07-23T17:20:38.801Z,22.00
2017-07-23T17:23:06.686Z,22.00
2017-07-23T17:25:35.340Z,22.00
2017-07-23T17:28:02.834Z,21.90
2017-07-23T17:30:30.343Z,21.90
2017-07-23T17:32:57.832Z,21.90
2017-07-23T17:35:26.478Z,21.80
2017-07-23T17:37:54.740Z,21.80
2017-07-23T17:40:22.257Z,21.80
2017-07-23T17:42:49.750Z,21.80
2017-07-23T17:45:17.248Z,21.80
2017-07-23T17:47:44.768Z,21.70
2017-07-23T17:50:12.264Z,21.70
2017-07-23T17:52:40.917Z,21.80
2017-07-23T17:55:08.423Z,21.70
2017-07-23T17:57:36.702Z,21.70
2017-07-23T18:00:04.198Z,21.80
2017-07-23T18:05:00.563Z,21.80
2017-07-23T18:07:29.585Z,21.80
2017-07-23T18:09:57.082Z,21.80
2017-07-23T18:12:24.590Z,21.80
2017-07-23T18:14:52.088Z,21.70
2017-07-23T18:17:19.599Z,21.70
2017-07-23T18:19:47.099Z,21.60
2017-07-23T18:22:14.600Z,21.50
2017-07-23T18:24:42.514Z,21.50
2017-07-23T18:27:10.006Z,21.50
2017-07-23T18:29:38.663Z,21.40
2017-07-23T18:32:06.158Z,21.30
2017-07-23T18:34:33.675Z,21.30
2017-07-23T18:37:01.170Z,21.20
2017-07-23T18:39:28.691Z,21.20
2017-07-23T18:41:56.194Z,21.10
2017-07-23T18:44:23.715Z,21.00
2017-07-23T18:46:51.654Z,21.10
2017-07-23T18:49:19.175Z,21.00
2017-07-23T18:51:46.679Z,21.00
2017-07-23T18:54:14.971Z,21.00
2017-07-23T18:56:42.467Z,21.00
2017-07-23T18:59:10.271Z,21.00
2017-07-23T19:01:37.791Z,20.90
2017-07-23T19:04:05.292Z,20.90
2017-07-23T19:06:33.697Z,20.80
2017-07-23T19:09:01.346Z,20.80
2017-07-23T19:11:29.010Z,20.80
2017-07-23T19:13:57.271Z,20.80
2017-07-23T19:16:24.799Z,20.80
2017-07-23T19:18:52.303Z,20.80
2017-07-23T19:21:20.582Z,20.80
2017-07-23T19:23:48.078Z,20.80
2017-07-23T19:26:15.616Z,20.80
2017-07-23T19:28:43.125Z,20.80
2017-07-23T19:31:10.618Z,20.80
2017-07-23T19:33:38.138Z,20.80
2017-07-23T19:36:05.633Z,20.80
2017-07-23T19:38:33.156Z,20.70
2017-07-23T19:41:00.665Z,20.70
2017-07-23T19:43:28.187Z,20.60
2017-07-23T19:45:55.687Z,20.60
2017-07-23T19:48:23.598Z,20.50
2017-07-23T19:50:51.095Z,20.50
2017-07-23T19:53:18.619Z,20.60
2017-07-23T19:55:46.138Z,20.60
2017-07-23T19:58:13.638Z,20.70
2017-07-23T20:00:41.151Z,20.70
2017-07-23T20:03:08.647Z,20.80
2017-07-23T20:05:36.935Z,20.70
2017-07-23T20:08:04.431Z,20.70
2017-07-23T20:10:31.946Z,20.70
2017-07-23T20:12:59.439Z,20.60
2017-07-23T20:15:26.959Z,20.60
2017-07-23T20:17:54.463Z,20.60
2017-07-23T20:20:21.978Z,20.60
2017-07-23T20:22:49.867Z,20.60
2017-07-23T20:25:17.770Z,20.60
2017-07-23T20:27:45.264Z,20.60
2017-07-23T20:30:12.760Z,20.50
2017-07-23T20:32:40.280Z,20.60
2017-07-23T20:35:07.783Z,20.60
2017-07-23T20:37:35.308Z,20.50
2017-07-23T20:40:02.804Z,20.40
2017-07-23T20:42:30.323Z,20.30
2017-07-23T20:44:59.336Z,20.20
2017-07-23T20:47:26.861Z,20.10
2017-07-23T20:49:54.363Z,20.10
2017-07-23T20:52:21.880Z,20.00
2017-07-23T20:54:49.375Z,20.00
2017-07-23T20:57:16.892Z,20.00
2017-07-23T20:59:44.803Z,20.00
2017-07-23T21:02:12.297Z,20.00
2017-07-23T21:04:40.211Z,19.90
2017-07-23T21:07:08.475Z,19.90
2017-07-23T21:09:35.990Z,19.80
2017-07-23T21:12:03.503Z,19.80
2017-07-23T21:14:32.166Z,19.80
2017-07-23T21:16:59.761Z,19.80
2017-07-23T21:19:27.275Z,19.80
2017-07-23T21:21:54.777Z,19.80
2017-07-23T21:24:22.667Z,19.70
2017-07-23T21:26:50.950Z,19.80
2017-07-23T21:29:18.447Z,19.70
2017-07-23T21:31:45.967Z,19.70
2017-07-23T21:34:13.867Z,19.70
2017-07-23T21:36:41.379Z,19.80
2017-07-23T21:39:08.870Z,19.70
2017-07-23T21:41:36.383Z,19.70
2017-07-23T21:44:03.882Z,19.70
2017-07-23T21:46:31.395Z,19.70
2017-07-23T21:48:58.898Z,19.80
2017-07-23T21:51:26.827Z,19.80
2017-07-23T21:53:54.323Z,19.80
2017-07-23T21:56:22.226Z,19.80
2017-07-23T21:58:50.507Z,19.90
2017-07-23T22:01:18.402Z,19.90
2017-07-23T22:03:45.923Z,19.90
2017-07-23T22:06:13.419Z,19.80
2017-07-23T22:08:40.939Z,19.80
2017-07-23T22:11:08.436Z,19.80
2017-07-23T22:13:36.351Z,19.80
2017-07-23T22:16:03.850Z,19.80
2017-07-23T22:18:31.367Z,19.70
2017-07-23T22:20:59.256Z,19.70
2017-07-23T22:23:26.746Z,19.70
2017-07-23T22:25:54.263Z,19.80
2017-07-23T22:28:21.769Z,19.70
2017-07-23T22:30:49.673Z,19.70
2017-07-23T22:33:17.249Z,19.70
2017-07-23T22:35:45.527Z,19.70
2017-07-23T22:38:13.023Z,19.80
2017-07-23T22:40:41.679Z,19.70
2017-07-23T22:43:09.180Z,19.70
2017-07-23T22:45:38.215Z,19.70
2017-07-23T22:48:05.707Z,19.70
2017-07-23T22:50:33.222Z,19.70
2017-07-23T22:53:00.714Z,19.60
2017-07-23T22:55:28.238Z,19.60
2017-07-23T22:57:55.734Z,19.60
2017-07-23T23:00:23.996Z,19.60
2017-07-23T23:02:52.270Z,19.60
2017-07-23T23:05:20.909Z,19.60
2017-07-23T23:07:48.430Z,19.60
2017-07-23T23:10:16.694Z,19.50
2017-07-23T23:12:44.598Z,19.50
2017-07-23T23:15:12.096Z,19.50
2017-07-23T23:17:40.758Z,19.50
2017-07-23T23:20:08.263Z,19.50
2017-07-23T23:22:36.179Z,19.50
2017-07-23T23:25:03.675Z,19.50
2017-07-23T23:30:00.035Z,19.50
2017-07-23T23:32:27.554Z,19.50
2017-07-23T23:34:55.047Z,19.50
2017-07-23T23:37:22.551Z,19.50
2017-07-23T23:39:51.211Z,19.50
2017-07-23T23:44:47.566Z,19.60
2017-07-23T23:47:15.061Z,19.60
2017-07-23T23:49:43.719Z,19.60
2017-07-23T23:52:11.219Z,19.50
2017-07-23T23:54:38.734Z,19.60
2017-07-23T23:57:06.230Z,19.60
2017-07-23T23:59:34.142Z,19.60
